Time;durP1;ratioP1;P1;durP2;ratioP2;P2;SDS_P1;SDS_P2;PMS_P1;PMS_P2;Temp;Humidity;BMP_temperature;BMP_pressure;BME280_temperature;BME280_humidity;BME280_pressure;Samples;Min_cycle;Max_cycle;Signal;HPM_P1;HPM_P2
2023/08/08 00:00:18;;;;;;;10.02;6.40;;;;;;;15.19;68.39;100849.78;681141;28;1233;-77
2023/08/08 00:00:40;;;;;;;8.93;6.22;;;;;;;15.16;68.51;100855.03;685238;28;1245;-78
2023/08/08 00:01:01;;;;;;;10.88;6.50;;;;;;;15.21;68.84;100873.50;686288;28;1101;-78
2023/08/08 00:01:21;;;;;;;11.20;6.37;;;;;;;15.13;68.74;100848.84;685085;28;1163;-78
2023/08/08 00:01:42;;;;;;;10.52;6.25;;;;;;;15.08;68.94;100844.41;679495;28;1193;-77
2023/08/08 00:02:03;;;;;;;9.35;6.25;;;;;;;15.12;69.05;100852.34;684992;28;1111;-78
2023/08/08 00:02:24;;;;;;;9.60;6.50;;;;;;;15.06;69.18;100851.41;689396;28;1118;-77
2023/08/08 00:02:45;;;;;;;10.25;6.88;;;;;;;14.99;69.24;100835.56;687456;28;1047;-78
2023/08/08 00:03:05;;;;;;;9.35;6.68;;;;;;;15.01;69.46;100839.09;687501;28;1079;-77
2023/08/08 00:03:26;;;;;;;11.90;6.63;;;;;;;15.04;69.51;100850.53;689940;28;1143;-78
2023/08/08 00:03:47;;;;;;;12.07;6.50;;;;;;;15.10;69.52;100857.59;687450;28;1992;-76
2023/08/08 00:04:07;;;;;;;12.80;6.63;;;;;;;15.01;69.79;100842.59;690336;28;956;-78
2023/08/08 00:04:28;;;;;;;10.55;6.80;;;;;;;14.99;69.92;100840.84;690046;28;1079;-77
2023/08/08 00:04:50;;;;;;;9.87;6.90;;;;;;;14.98;69.90;100839.94;690407;28;1087;-76
2023/08/08 00:05:11;;;;;;;9.10;6.68;;;;;;;15.01;69.83;100839.09;687404;28;1107;-78
2023/08/08 00:05:31;;;;;;;11.05;6.70;;;;;;;14.98;69.98;100829.44;690253;28;1898;-77
2023/08/08 00:05:52;;;;;;;12.43;7.03;;;;;;;15.02;70.20;100846.13;684382;28;1337;-78
2023/08/08 00:06:14;;;;;;;14.02;7.20;;;;;;;15.01;70.39;100849.59;682128;29;1001;-77
2023/08/08 00:06:34;;;;;;;12.32;7.20;;;;;;;14.92;70.41;100837.25;684782;28;1205;-78
2023/08/08 00:06:55;;;;;;;13.70;7.10;;;;;;;14.94;70.50;100838.16;690274;28;1503;-77
2023/08/08 00:07:16;;;;;;;13.20;7.13;;;;;;;14.99;70.73;100846.94;684684;28;1220;-78
2023/08/08 00:07:36;;;;;;;13.20;6.90;;;;;;;14.96;70.50;100839.03;684938;28;1092;-78
2023/08/08 00:07:57;;;;;;;13.40;6.75;;;;;;;14.91;70.70;100836.38;682930;28;1456;-78
2023/08/08 00:08:17;;;;;;;13.90;7.10;;;;;;;14.89;70.83;100832.81;685131;28;1433;-78
2023/08/08 00:08:38;;;;;;;13.90;7.38;;;;;;;14.91;70.84;100835.47;685273;28;1152;-77
2023/08/08 00:08:59;;;;;;;12.93;7.32;;;;;;;14.93;71.22;100841.63;688080;28;1157;-78
2023/08/08 00:09:19;;;;;;;12.30;7.60;;;;;;;14.91;71.08;100832.84;684053;28;1287;-78
2023/08/08 00:09:40;;;;;;;11.90;7.50;;;;;;;14.92;71.06;100835.50;688064;28;1230;-78
2023/08/08 00:10:01;;;;;;;11.20;7.45;;;;;;;14.98;71.36;100847.81;690370;28;1243;-78
2023/08/08 00:10:22;;;;;;;10.85;7.07;;;;;;;14.96;71.15;100835.53;690772;28;1075;-78
2023/08/08 00:10:42;;;;;;;10.30;7.15;;;;;;;14.90;71.40;100823.22;690379;28;1346;-79
2023/08/08 00:11:03;;;;;;;14.67;7.20;;;;;;;14.88;71.46;100824.94;692958;28;1246;-80
2023/08/08 00:11:23;;;;;;;13.93;6.90;;;;;;;14.89;71.48;100824.94;685412;28;1331;-79
2023/08/08 00:11:44;;;;;;;15.80;7.10;;;;;;;14.93;71.37;100825.84;688574;28;1384;-78
2023/08/08 00:12:05;;;;;;;12.37;7.27;;;;;;;15.00;71.40;100842.59;688354;28;1579;-78
2023/08/08 00:12:26;;;;;;;12.40;7.45;;;;;;;14.93;71.81;100831.09;682157;28;1045;-78
2023/08/08 00:12:46;;;;;;;10.05;7.25;;;;;;;14.93;71.60;100826.75;689387;28;1999;-77
2023/08/08 00:13:07;;;;;;;9.43;7.40;;;;;;;14.94;71.67;100835.53;690817;28;1440;-78
2023/08/08 00:13:28;;;;;;;11.60;7.70;;;;;;;14.92;71.80;100835.50;687962;28;1231;-79
2023/08/08 00:13:48;;;;;;;12.75;8.07;;;;;;;14.93;72.01;100825.84;684170;28;1265;-77
2023/08/08 00:14:09;;;;;;;12.83;8.10;;;;;;;15.00;71.72;100842.59;683695;28;1695;-77
2023/08/08 00:14:29;;;;;;;12.27;7.90;;;;;;;14.95;71.71;100829.41;685450;28;1194;-77
2023/08/08 00:14:50;;;;;;;11.40;7.30;;;;;;;14.95;71.99;100829.41;687939;28;1082;-78
2023/08/08 00:15:11;;;;;;;12.88;7.60;;;;;;;15.01;71.73;100833.84;690699;28;1269;-77
2023/08/08 00:15:32;;;;;;;11.87;7.23;;;;;;;14.89;71.87;100819.69;690625;28;1495;-78
2023/08/08 00:15:53;;;;;;;12.05;7.47;;;;;;;14.97;72.01;100827.66;685099;28;1388;-76
2023/08/08 00:16:14;;;;;;;11.40;7.10;;;;;;;14.93;71.99;100826.75;685175;28;1120;-76
2023/08/08 00:16:34;;;;;;;12.57;7.00;;;;;;;14.90;71.98;100818.84;682771;29;1174;-77
2023/08/08 00:16:55;;;;;;;12.93;7.00;;;;;;;14.91;72.08;100823.25;684384;28;764;-77
2023/08/08 00:17:16;;;;;;;12.48;7.10;;;;;;;14.95;72.27;100824.16;691097;28;1493;-77
2023/08/08 00:17:37;;;;;;;10.40;7.30;;;;;;;14.93;72.36;100825.84;690596;28;1499;-77
2023/08/08 00:17:57;;;;;;;10.68;7.50;;;;;;;14.93;72.36;100824.13;696177;28;1302;-77
2023/08/08 00:18:18;;;;;;;9.70;7.15;;;;;;;14.96;72.48;100825.91;693391;28;1482;-77
2023/08/08 00:18:38;;;;;;;11.45;6.90;;;;;;;14.92;72.57;100818.84;690543;28;1452;-77
2023/08/08 00:18:59;;;;;;;10.80;6.73;;;;;;;14.95;72.45;100824.16;688209;28;1639;-76
2023/08/08 00:19:20;;;;;;;11.43;6.65;;;;;;;14.96;72.67;100836.41;686628;28;1211;-77
2023/08/08 00:19:40;;;;;;;10.15;6.70;;;;;;;14.95;72.73;100824.16;686076;28;1477;-76
2023/08/08 00:20:02;;;;;;;11.30;6.70;;;;;;;15.03;72.74;100843.50;690271;28;1170;-77
2023/08/08 00:20:23;;;;;;;11.15;6.97;;;;;;;14.96;72.92;100825.91;686596;28;1659;-76
2023/08/08 00:20:43;;;;;;;10.10;7.10;;;;;;;14.98;72.67;100833.81;685593;28;1343;-78
2023/08/08 00:21:04;;;;;;;10.30;7.20;;;;;;;15.03;72.84;100843.50;691326;28;1057;-77
2023/08/08 00:21:25;;;;;;;10.27;7.10;;;;;;;14.98;72.76;100831.19;690994;28;1479;-77
2023/08/08 00:21:46;;;;;;;10.23;7.20;;;;;;;14.96;72.85;100820.66;690597;28;1055;-77
2023/08/08 00:22:06;;;;;;;11.05;7.05;;;;;;;15.05;73.14;100841.78;689842;28;1161;-76
2023/08/08 00:22:27;;;;;;;11.37;7.17;;;;;;;14.99;73.02;100825.06;685228;28;1695;-76
2023/08/08 00:22:47;;;;;;;11.57;7.30;;;;;;;15.00;72.88;100832.94;685214;28;1509;-77
2023/08/08 00:23:08;;;;;;;10.57;7.57;;;;;;;15.01;72.86;100824.19;689551;28;1189;-77
2023/08/08 00:23:29;;;;;;;10.73;7.45;;;;;;;15.01;72.90;100821.56;695701;28;1119;-76
2023/08/08 00:23:49;;;;;;;10.73;7.30;;;;;;;15.05;73.10;100823.38;691353;28;2004;-77
2023/08/08 00:24:10;;;;;;;10.18;7.10;;;;;;;15.10;73.07;100836.56;685601;28;1040;-77
2023/08/08 00:24:31;;;;;;;10.30;7.33;;;;;;;15.10;72.99;100833.06;680159;28;1600;-76
2023/08/08 00:24:52;;;;;;;9.57;7.10;;;;;;;15.05;73.07;100823.38;684324;28;2011;-76
2023/08/08 00:25:12;;;;;;;11.07;7.30;;;;;;;15.10;73.25;100822.56;687700;28;1099;-76
2023/08/08 00:25:33;;;;;;;10.80;7.20;;;;;;;15.17;73.38;100829.59;687579;28;1991;-76
2023/08/08 00:25:54;;;;;;;11.13;7.20;;;;;;;15.11;73.33;100822.53;687199;28;943;-76
2023/08/08 00:26:14;;;;;;;10.80;7.40;;;;;;;15.18;73.20;100842.78;691504;28;1505;-76
2023/08/08 00:26:35;;;;;;;11.07;7.20;;;;;;;15.10;73.35;100823.41;688719;28;1472;-76
2023/08/08 00:26:56;;;;;;;12.25;7.72;;;;;;;15.11;73.17;100833.06;685317;28;1683;-76
2023/08/08 00:27:16;;;;;;;11.70;7.50;;;;;;;15.14;73.22;100832.22;686170;28;1230;-76
2023/08/08 00:27:41;;;;;;;11.25;7.60;;;;;;;15.14;73.23;100832.22;687879;28;1168;-76
2023/08/08 00:28:03;;;;;;;10.13;7.10;;;;;;;15.13;73.39;100835.72;687775;28;1413;-76
2023/08/08 00:28:24;;;;;;;11.35;6.75;;;;;;;15.12;73.29;100831.31;685331;28;929;-76
2023/08/08 00:28:45;;;;;;;11.85;6.90;;;;;;;15.15;73.46;100836.59;688462;28;1277;-76
2023/08/08 00:29:06;;;;;;;13.02;7.10;;;;;;;15.14;73.41;100829.59;685136;28;1548;-77
2023/08/08 00:29:28;;;;;;;13.93;7.50;;;;;;;15.16;73.53;100831.38;685332;28;1334;-77
2023/08/08 00:29:50;;;;;;;13.68;7.50;;;;;;;15.23;73.53;100839.34;682468;28;1125;-77
2023/08/08 00:30:37;;;;;;;12.73;7.75;;;;;;;15.23;73.71;100839.34;682448;29;1146;-77
2023/08/08 00:30:58;;;;;;;10.80;7.72;;;;;;;15.19;73.57;100820.88;685329;28;1378;-78
2023/08/08 00:31:19;;;;;;;10.00;7.43;;;;;;;15.18;73.66;100820.88;690462;28;1262;-78
2023/08/08 00:31:40;;;;;;;9.30;7.47;;;;;;;15.28;73.77;100829.75;687503;28;1491;-77
2023/08/08 00:32:00;;;;;;;10.73;7.70;;;;;;;15.14;73.66;100809.44;685455;28;1063;-78
2023/08/08 00:32:21;;;;;;;11.02;7.70;;;;;;;15.19;73.77;100820.00;685400;28;1111;-78
2023/08/08 00:32:42;;;;;;;11.80;7.80;;;;;;;15.26;74.01;100835.00;682641;29;1478;-78
2023/08/08 00:33:03;;;;;;;10.90;7.60;;;;;;;15.23;73.76;100824.44;682152;29;1521;-78
2023/08/08 00:33:24;;;;;;;11.10;7.70;;;;;;;15.22;73.94;100817.44;682336;28;1430;-77
2023/08/08 00:33:45;;;;;;;12.02;7.75;;;;;;;15.20;73.78;100813.88;685485;28;1982;-78
2023/08/08 00:34:06;;;;;;;12.65;8.05;;;;;;;15.25;73.87;100827.09;687734;28;1512;-78
2023/08/08 00:34:26;;;;;;;12.83;8.30;;;;;;;15.23;73.56;100813.06;682036;28;1434;-77
2023/08/08 00:34:47;;;;;;;13.20;8.15;;;;;;;15.24;73.89;100815.69;687400;28;1571;-78
2023/08/08 00:35:08;;;;;;;13.23;7.80;;;;;;;15.26;73.99;100818.34;684995;28;1639;-77
2023/08/08 00:35:29;;;;;;;12.75;7.53;;;;;;;15.26;73.87;100819.25;690379;28;1062;-77
2023/08/08 00:35:50;;;;;;;12.93;7.88;;;;;;;15.26;74.08;100820.97;687355;28;1443;-77
2023/08/08 00:36:10;;;;;;;13.80;8.53;;;;;;;15.30;74.20;100822.78;685310;28;1058;-77
2023/08/08 00:36:31;;;;;;;14.13;8.70;;;;;;;15.22;73.84;100806.91;685382;28;1228;-78
2023/08/08 00:36:52;;;;;;;14.52;8.25;;;;;;;15.24;74.07;100813.06;686065;28;1611;-78
2023/08/08 00:37:13;;;;;;;14.02;7.72;;;;;;;15.28;74.02;100822.75;685435;28;1040;-78
2023/08/08 00:37:33;;;;;;;14.90;7.90;;;;;;;15.23;73.91;100810.44;689839;28;1654;-77
2023/08/08 00:37:54;;;;;;;13.17;8.40;;;;;;;15.22;74.17;100822.69;693496;28;1875;-77
2023/08/08 00:38:16;;;;;;;12.88;8.00;;;;;;;15.27;74.09;100825.34;687899;28;1083;-78
2023/08/08 00:38:36;;;;;;;10.70;7.72;;;;;;;15.27;74.19;100820.09;688347;28;1722;-77
2023/08/08 00:38:57;;;;;;;10.40;7.47;;;;;;;15.23;73.95;100816.56;688177;28;1125;-78
2023/08/08 00:39:18;;;;;;;10.77;7.80;;;;;;;15.21;74.11;100807.78;690641;28;1293;-77
2023/08/08 00:39:42;;;;;;;12.68;7.90;;;;;;;15.25;74.17;100817.47;688127;28;1472;-78
2023/08/08 00:40:03;;;;;;;15.23;7.80;;;;;;;15.21;74.24;100810.41;688070;28;1067;-78
2023/08/08 00:40:24;;;;;;;14.32;8.07;;;;;;;15.29;74.28;100819.25;685155;28;1228;-77
2023/08/08 00:40:45;;;;;;;11.85;7.70;;;;;;;15.28;74.34;100812.25;690526;28;1257;-78
2023/08/08 00:41:05;;;;;;;9.70;7.80;;;;;;;15.30;74.26;100814.88;692440;28;1728;-78
2023/08/08 00:41:26;;;;;;;13.70;7.78;;;;;;;15.31;74.11;100817.50;689022;28;1353;-78
2023/08/08 00:41:47;;;;;;;14.60;8.13;;;;;;;15.31;74.21;100808.75;689817;28;1076;-77
2023/08/08 00:42:09;;;;;;;15.65;8.23;;;;;;;15.29;74.23;100806.09;686177;28;1631;-78
2023/08/08 00:42:30;;;;;;;12.67;8.03;;;;;;;15.32;74.14;100810.53;684967;28;1295;-78
2023/08/08 00:42:50;;;;;;;14.40;7.85;;;;;;;15.33;74.10;100813.16;689386;28;1586;-78
2023/08/08 00:43:11;;;;;;;12.32;7.75;;;;;;;15.37;74.08;100821.06;685227;28;1036;-77
2023/08/08 00:43:32;;;;;;;12.55;8.15;;;;;;;15.31;74.12;100812.25;685916;28;1674;-78
2023/08/08 00:43:53;;;;;;;10.60;8.13;;;;;;;15.33;74.03;100820.16;691493;28;1372;-78
2023/08/08 00:44:14;;;;;;;11.15;8.00;;;;;;;15.32;74.09;100814.00;690624;28;1277;-77
2023/08/08 00:44:36;;;;;;;11.40;7.70;;;;;;;15.26;74.15;100803.47;688285;28;1928;-77
2023/08/08 00:45:01;;;;;;;11.30;7.65;;;;;;;15.26;74.13;100808.72;682813;28;1338;-77
2023/08/08 00:45:22;;;;;;;10.90;8.13;;;;;;;15.28;74.34;100812.25;687075;28;1362;-77
2023/08/08 00:45:44;;;;;;;12.48;8.50;;;;;;;15.29;74.39;100811.38;689633;28;1975;-78
2023/08/08 00:46:05;;;;;;;12.80;8.60;;;;;;;15.37;74.38;100824.59;692370;28;1574;-77
2023/08/08 00:46:26;;;;;;;13.80;8.50;;;;;;;15.28;74.30;100812.25;685851;28;1436;-78
2023/08/08 00:46:46;;;;;;;14.18;8.68;;;;;;;15.34;74.23;100822.81;682945;28;2030;-78
2023/08/08 00:47:11;;;;;;;12.90;8.60;;;;;;;15.31;74.31;100816.66;685519;28;1024;-77
2023/08/08 00:47:32;;;;;;;11.05;8.25;;;;;;;15.27;74.27;100804.31;682544;28;1609;-78
2023/08/08 00:47:54;;;;;;;10.25;7.80;;;;;;;15.26;74.29;100802.56;688040;28;1341;-78
2023/08/08 00:48:14;;;;;;;10.40;7.70;;;;;;;15.30;74.46;100812.25;684089;28;977;-78
2023/08/08 00:48:35;;;;;;;10.03;7.27;;;;;;;15.26;74.45;100800.84;687877;28;1204;-78
2023/08/08 00:48:56;;;;;;;10.27;7.40;;;;;;;15.26;74.80;100797.31;685627;28;1381;-78
2023/08/08 00:49:17;;;;;;;12.17;7.60;;;;;;;15.30;74.59;100807.88;690678;28;1087;-78
2023/08/08 00:49:49;;;;;;;12.57;7.68;;;;;;;15.31;74.50;100812.25;687929;28;1826;-78
2023/08/08 00:50:10;;;;;;;15.10;7.82;;;;;;;15.35;74.43;100819.31;685121;28;1727;-78
2023/08/08 00:50:31;;;;;;;13.38;8.20;;;;;;;15.27;74.53;100794.72;688085;28;1640;-78
2023/08/08 00:50:52;;;;;;;12.90;8.60;;;;;;;15.31;74.50;100806.13;686622;28;1292;-79
2023/08/08 00:51:13;;;;;;;13.15;8.63;;;;;;;15.33;74.51;100810.53;687354;28;1229;-78
2023/08/08 00:51:34;;;;;;;12.77;8.48;;;;;;;15.36;74.63;100809.66;682559;29;1628;-78
2023/08/08 00:51:55;;;;;;;12.90;8.20;;;;;;;15.29;74.49;100797.31;682812;28;1056;-78
2023/08/08 00:52:15;;;;;;;11.65;7.93;;;;;;;15.38;74.80;100812.31;683374;28;1994;-78
2023/08/08 00:52:38;;;;;;;12.32;8.02;;;;;;;15.33;74.29;100809.66;690584;28;1103;-77
2023/08/08 00:52:59;;;;;;;12.73;8.35;;;;;;;15.31;74.66;100809.63;688189;28;1489;-77
2023/08/08 00:53:22;;;;;;;14.93;8.77;;;;;;;15.35;74.74;100811.44;692676;28;1430;-78
2023/08/08 00:53:44;;;;;;;14.50;8.82;;;;;;;15.38;74.70;100815.84;687594;28;1695;-79
2023/08/08 00:54:05;;;;;;;13.07;8.30;;;;;;;15.38;74.63;100807.94;688837;28;1001;-78
2023/08/08 00:54:26;;;;;;;14.15;8.27;;;;;;;15.41;74.74;100821.13;690027;28;1320;-78
2023/08/08 00:54:47;;;;;;;14.32;8.43;;;;;;;15.32;74.78;100802.63;693305;28;1226;-79
2023/08/08 00:55:08;;;;;;;13.70;8.60;;;;;;;15.39;74.79;100809.72;692800;28;1752;-78
2023/08/08 00:55:29;;;;;;;11.05;8.05;;;;;;;15.39;74.61;100806.19;687695;28;1418;-77
2023/08/08 00:55:50;;;;;;;10.97;8.10;;;;;;;15.40;74.58;100805.31;687166;28;1237;-78
2023/08/08 00:56:14;;;;;;;11.38;8.45;;;;;;;15.44;74.57;100817.63;685258;28;1616;-77
2023/08/08 00:56:36;;;;;;;10.98;8.07;;;;;;;15.44;74.73;100812.38;685008;28;1487;-78
2023/08/08 00:56:57;;;;;;;10.68;7.90;;;;;;;15.39;74.68;100811.44;682898;29;828;-78
2023/08/08 00:57:17;;;;;;;10.13;7.78;;;;;;;15.41;74.69;100807.97;690529;28;1257;-77
2023/08/08 00:57:39;;;;;;;10.73;7.75;;;;;;;15.41;74.69;100812.31;684816;28;1708;-77
2023/08/08 00:58:00;;;;;;;10.85;7.97;;;;;;;15.43;74.76;100815.88;688219;28;1956;-78
2023/08/08 00:58:21;;;;;;;10.75;8.10;;;;;;;15.40;74.72;100802.69;692672;28;1113;-77
2023/08/08 00:58:41;;;;;;;10.73;8.50;;;;;;;15.40;74.71;100800.06;687490;28;1751;-77
2023/08/08 00:59:03;;;;;;;11.93;8.32;;;;;;;15.39;74.72;100801.81;690653;28;1174;-78
2023/08/08 00:59:24;;;;;;;14.15;8.35;;;;;;;15.47;74.75;100813.28;690734;28;1098;-78
2023/08/08 00:59:45;;;;;;;15.07;8.43;;;;;;;15.42;74.89;100808.84;690050;28;1086;-77
2023/08/08 01:00:07;;;;;;;14.25;8.50;;;;;;;15.48;74.83;100814.13;690416;28;1737;-78
2023/08/08 01:00:27;;;;;;;13.18;8.35;;;;;;;15.41;74.85;100807.97;690236;28;1222;-77
2023/08/08 01:00:48;;;;;;;12.43;8.30;;;;;;;15.38;74.83;100797.44;687572;28;1633;-77
2023/08/08 01:01:09;;;;;;;11.70;7.90;;;;;;;15.47;74.84;100820.28;689364;28;1736;-78
2023/08/08 01:01:29;;;;;;;10.67;8.10;;;;;;;15.43;74.80;100808.00;686668;28;1350;-77
2023/08/08 01:01:50;;;;;;;10.68;8.23;;;;;;;15.41;74.63;100802.72;688368;28;1810;-77
2023/08/08 01:02:11;;;;;;;12.10;8.57;;;;;;;15.47;74.67;100815.00;685061;28;1002;-77
2023/08/08 01:02:32;;;;;;;12.70;8.70;;;;;;;15.40;74.81;100806.19;687666;28;1448;-77
2023/08/08 01:02:53;;;;;;;13.38;8.82;;;;;;;15.43;74.78;100803.59;679290;29;1622;-77
2023/08/08 01:03:13;;;;;;;12.20;9.10;;;;;;;15.39;74.84;100801.81;689601;28;2031;-77
2023/08/08 01:03:34;;;;;;;13.73;8.90;;;;;;;15.41;74.85;100801.81;690188;28;1601;-78
2023/08/08 01:03:55;;;;;;;13.65;8.68;;;;;;;15.49;74.84;100815.94;682619;28;1652;-77
2023/08/08 01:04:16;;;;;;;16.43;8.27;;;;;;;15.44;75.00;100810.59;682486;28;981;-77
2023/08/08 01:04:38;;;;;;;18.70;8.73;;;;;;;15.43;74.75;100802.72;681930;29;1784;-78
2023/08/08 01:04:59;;;;;;;19.40;9.27;;;;;;;15.48;74.70;100815.03;685356;28;1262;-78
2023/08/08 01:05:20;;;;;;;16.77;9.10;;;;;;;15.51;74.93;100814.19;686488;28;1258;-78
2023/08/08 01:05:51;;;;;;;12.18;8.40;;;;;;;15.50;74.82;100815.06;688805;28;1951;-77
2023/08/08 01:06:53;;;;;;;12.90;8.60;;;;;;;15.51;75.05;100819.44;677861;28;1352;-78
2023/08/08 01:07:32;;;;;;;14.48;8.80;;;;;;;15.53;74.87;100817.69;679990;29;1176;-78
2023/08/08 01:08:05;;;;;;;14.90;9.10;;;;;;;15.42;75.01;100793.94;679824;29;1697;-78
2023/08/08 01:08:35;;;;;;;14.65;8.90;;;;;;;15.45;75.09;100798.34;682433;28;1523;-77
2023/08/08 01:09:02;;;;;;;15.32;9.10;;;;;;;15.43;74.97;100798.34;682240;28;1535;-77
2023/08/08 01:09:32;;;;;;;15.63;9.60;;;;;;;15.47;75.07;100804.50;684967;28;898;-77
2023/08/08 01:10:06;;;;;;;14.48;9.85;;;;;;;15.49;75.09;100800.16;687497;28;1599;-77
2023/08/08 01:10:36;;;;;;;15.38;8.98;;;;;;;15.53;75.01;100817.69;690242;28;1463;-77
2023/08/08 01:10:57;;;;;;;13.55;8.40;;;;;;;15.47;75.02;100801.88;687873;28;1160;-78
2023/08/08 01:11:18;;;;;;;12.93;8.85;;;;;;;15.43;75.05;100794.84;688865;28;1511;-77
2023/08/08 01:11:40;;;;;;;11.90;8.77;;;;;;;15.44;75.06;100796.59;685218;28;996;-78
2023/08/08 01:12:02;;;;;;;12.73;8.82;;;;;;;15.47;75.25;100799.25;687909;28;1460;-77
2023/08/08 01:12:25;;;;;;;13.77;9.30;;;;;;;15.54;75.31;100813.34;684387;28;1662;-77
2023/08/08 01:12:52;;;;;;;16.50;9.90;;;;;;;15.44;75.11;100796.59;685233;28;1458;-77
2023/08/08 01:13:19;;;;;;;16.48;10.07;;;;;;;15.46;75.13;100797.47;681179;28;1469;-77
2023/08/08 01:13:41;;;;;;;16.75;9.70;;;;;;;15.49;75.02;100806.28;683190;28;1200;-77
2023/08/08 01:14:05;;;;;;;18.63;10.00;;;;;;;15.44;75.09;100796.59;684986;28;2002;-78
2023/08/08 01:14:29;;;;;;;18.23;9.85;;;;;;;15.46;75.12;100800.09;690295;28;1287;-77
2023/08/08 01:14:50;;;;;;;15.13;10.25;;;;;;;15.49;74.96;100802.78;688766;28;1658;-77
2023/08/08 01:15:12;;;;;;;13.20;9.63;;;;;;;15.47;75.10;100801.88;687738;28;977;-78
2023/08/08 01:15:36;;;;;;;14.93;9.65;;;;;;;15.49;75.22;100805.41;684773;28;1545;-78
2023/08/08 01:15:57;;;;;;;15.13;9.40;;;;;;;15.41;74.99;100799.19;679814;29;1514;-77
2023/08/08 01:16:20;;;;;;;15.05;10.23;;;;;;;15.45;75.17;100803.63;687844;28;1082;-77
2023/08/08 01:16:42;;;;;;;16.30;10.32;;;;;;;15.42;75.40;100798.34;685238;28;1189;-78
2023/08/08 01:17:04;;;;;;;16.08;9.88;;;;;;;15.44;75.08;100801.84;688905;28;1527;-77
2023/08/08 01:17:25;;;;;;;16.08;9.57;;;;;;;15.40;75.18;100794.78;682420;28;1069;-77
2023/08/08 01:17:47;;;;;;;13.45;9.80;;;;;;;15.47;75.09;100808.03;690758;28;1484;-77
2023/08/08 01:18:10;;;;;;;13.10;9.70;;;;;;;15.47;75.32;100808.03;688167;28;1310;-77
2023/08/08 01:18:32;;;;;;;12.55;9.77;;;;;;;15.49;75.24;100810.69;687562;28;1548;-78
2023/08/08 01:18:53;;;;;;;12.75;9.73;;;;;;;15.39;75.24;100790.41;688181;28;1001;-77
2023/08/08 01:19:23;;;;;;;13.00;9.75;;;;;;;15.47;75.36;100802.75;687185;28;1260;-77
2023/08/08 01:19:47;;;;;;;14.30;10.20;;;;;;;15.48;75.30;100806.25;686881;28;1560;-78
2023/08/08 01:20:10;;;;;;;12.82;9.80;;;;;;;15.47;75.18;100801.88;690564;28;1339;-77
2023/08/08 01:20:33;;;;;;;15.27;9.85;;;;;;;15.41;75.15;100794.81;689711;28;1703;-77
2023/08/08 01:20:55;;;;;;;14.77;9.50;;;;;;;15.41;75.11;100797.44;688159;28;1500;-77
2023/08/08 01:21:16;;;;;;;15.65;9.70;;;;;;;15.46;75.14;100803.63;685053;28;954;-77
2023/08/08 01:21:41;;;;;;;14.15;9.60;;;;;;;15.45;75.17;100800.97;685287;28;1163;-78
2023/08/08 01:22:05;;;;;;;12.23;9.60;;;;;;;15.45;75.05;100803.63;685364;28;1293;-78
2023/08/08 01:22:35;;;;;;;12.88;9.38;;;;;;;15.42;75.14;100799.19;685398;28;1282;-78
2023/08/08 01:23:11;;;;;;;14.45;9.60;;;;;;;15.41;75.38;100788.66;686818;28;1973;-77
2023/08/08 01:23:46;;;;;;;14.30;9.43;;;;;;;15.46;75.26;100805.38;686879;28;1659;-77
2023/08/08 01:24:21;;;;;;;14.40;9.23;;;;;;;15.44;75.34;100807.97;687945;28;965;-78
2023/08/08 01:24:44;;;;;;;14.90;9.88;;;;;;;15.36;75.16;100783.38;690504;28;987;-78
2023/08/08 01:25:06;;;;;;;14.00;10.15;;;;;;;15.40;75.25;100789.53;693414;28;1861;-78
2023/08/08 01:25:27;;;;;;;14.43;10.30;;;;;;;15.43;75.30;100800.97;690748;28;1459;-77
2023/08/08 01:25:48;;;;;;;14.80;10.18;;;;;;;15.38;75.19;100783.38;687314;28;1679;-77
2023/08/08 01:26:09;;;;;;;14.40;10.10;;;;;;;15.41;75.10;100801.81;687910;28;1944;-77
2023/08/08 01:26:31;;;;;;;12.73;9.60;;;;;;;15.35;75.28;100790.41;678154;28;1020;-77
2023/08/08 01:26:52;;;;;;;12.52;9.52;;;;;;;15.35;75.36;100793.03;687767;28;1213;-77
2023/08/08 01:27:15;;;;;;;13.53;10.30;;;;;;;15.41;75.54;100796.56;684752;28;1705;-77
2023/08/08 01:27:36;;;;;;;13.88;10.60;;;;;;;15.34;75.38;100793.91;685238;28;1382;-78
2023/08/08 01:27:57;;;;;;;14.25;10.40;;;;;;;15.39;75.08;100799.19;688169;28;909;-78
2023/08/08 01:28:22;;;;;;;13.85;9.90;;;;;;;15.40;75.34;100800.94;685856;28;1385;-79
2023/08/08 01:28:44;;;;;;;14.55;9.60;;;;;;;15.40;75.45;100797.44;689159;28;1352;-77
2023/08/08 01:29:04;;;;;;;14.52;9.73;;;;;;;15.35;75.36;100793.03;687806;28;1436;-78
2023/08/08 01:29:25;;;;;;;14.38;9.65;;;;;;;15.40;75.40;100805.31;687460;28;1067;-77
2023/08/08 01:29:46;;;;;;;13.23;9.50;;;;;;;15.36;75.38;100788.63;690750;28;884;-78
2023/08/08 01:30:09;;;;;;;12.10;9.32;;;;;;;15.35;75.25;100793.03;689656;28;2090;-78
2023/08/08 01:30:30;;;;;;;12.52;9.65;;;;;;;15.32;75.29;100781.59;690880;28;1634;-77
2023/08/08 01:30:51;;;;;;;12.60;9.70;;;;;;;15.35;75.44;100794.75;687784;28;934;-77
2023/08/08 01:31:12;;;;;;;14.02;10.25;;;;;;;15.32;75.31;100790.34;681789;28;1388;-77
2023/08/08 01:31:33;;;;;;;16.20;10.30;;;;;;;15.30;75.47;100784.19;686381;28;1599;-77
2023/08/08 01:31:54;;;;;;;20.77;10.20;;;;;;;15.28;75.31;100787.69;689067;28;1607;-77
2023/08/08 01:32:15;;;;;;;19.40;9.55;;;;;;;15.33;75.37;100794.75;689937;28;1689;-77
2023/08/08 01:32:35;;;;;;;19.23;9.70;;;;;;;15.32;75.57;100786.84;687795;28;1773;-77
2023/08/08 01:32:56;;;;;;;15.60;9.70;;;;;;;15.39;75.38;100803.56;688127;28;1539;-77
2023/08/08 01:33:17;;;;;;;16.63;9.93;;;;;;;15.33;75.53;100802.66;688768;28;1039;-78
2023/08/08 01:33:38;;;;;;;16.00;9.95;;;;;;;15.37;75.35;100800.03;693240;28;1360;-77
2023/08/08 01:33:59;;;;;;;15.15;9.90;;;;;;;15.33;75.31;100797.41;688509;28;1464;-78
2023/08/08 01:34:20;;;;;;;15.25;9.90;;;;;;;15.31;75.63;100785.09;688126;28;1067;-77
2023/08/08 01:34:40;;;;;;;15.65;9.85;;;;;;;15.41;75.38;100807.06;687552;28;1706;-78
2023/08/08 01:35:02;;;;;;;15.27;9.77;;;;;;;15.38;75.37;100801.78;682471;29;1080;-77
2023/08/08 01:35:28;;;;;;;14.32;9.60;;;;;;;15.31;75.39;100796.47;684061;28;1258;-77
2023/08/08 01:36:04;;;;;;;14.13;9.75;;;;;;;15.40;75.67;100808.84;687401;28;1631;-77
2023/08/08 01:36:32;;;;;;;16.50;10.68;;;;;;;15.40;75.43;100805.31;687636;28;1465;-77
2023/08/08 01:37:09;;;;;;;16.90;10.40;;;;;;;15.38;75.54;100812.31;690578;28;1027;-77
2023/08/08 01:37:45;;;;;;;13.98;9.93;;;;;;;15.33;75.38;100802.66;682786;29;1083;-78
2023/08/08 01:38:20;;;;;;;15.90;9.55;;;;;;;15.38;75.49;100809.69;684666;28;1388;-77
2023/08/08 01:38:44;;;;;;;16.40;9.88;;;;;;;15.43;75.69;100821.13;686036;28;1070;-77
2023/08/08 01:39:12;;;;;;;15.25;10.10;;;;;;;15.45;75.62;100819.38;690708;28;1084;-78
2023/08/08 01:39:35;;;;;;;16.00;10.18;;;;;;;15.38;75.50;100815.84;692916;28;1558;-77
2023/08/08 01:39:59;;;;;;;14.07;9.80;;;;;;;15.39;75.83;100812.34;691796;28;1662;-77
2023/08/08 01:40:21;;;;;;;14.23;10.18;;;;;;;15.38;75.61;100814.94;682547;28;1269;-77
2023/08/08 01:40:44;;;;;;;18.08;10.48;;;;;;;15.37;75.62;100805.28;682458;28;1092;-78
2023/08/08 01:41:06;;;;;;;16.35;9.98;;;;;;;15.45;75.66;100824.66;685083;28;1059;-78
2023/08/08 01:41:27;;;;;;;15.90;9.68;;;;;;;15.37;75.49;100810.56;690552;28;1391;-77
2023/08/08 01:41:48;;;;;;;14.80;9.93;;;;;;;15.48;75.48;100827.28;690398;28;1618;-77
2023/08/08 01:42:11;;;;;;;14.68;10.38;;;;;;;15.43;75.39;100811.47;682805;29;1035;-77
2023/08/08 01:42:34;;;;;;;13.52;10.30;;;;;;;15.44;75.42;100807.97;685313;28;1103;-78
2023/08/08 01:42:56;;;;;;;13.68;10.57;;;;;;;15.48;75.37;100814.13;689381;28;1376;-77
2023/08/08 01:43:18;;;;;;;18.10;10.75;;;;;;;15.43;75.34;100808.84;690580;28;1108;-78
2023/08/08 01:43:39;;;;;;;19.20;11.13;;;;;;;15.44;75.47;100801.84;690736;28;1105;-77
2023/08/08 01:44:02;;;;;;;19.58;10.90;;;;;;;15.46;75.33;100805.38;690833;28;1155;-77
2023/08/08 01:44:25;;;;;;;16.88;10.93;;;;;;;15.52;75.56;100821.22;690751;28;1070;-77
2023/08/08 01:44:48;;;;;;;17.45;11.50;;;;;;;15.45;75.38;100800.97;687919;28;1051;-78
2023/08/08 01:45:09;;;;;;;17.50;12.00;;;;;;;15.54;75.41;100819.47;685532;28;1139;-78
2023/08/08 01:45:30;;;;;;;15.85;11.60;;;;;;;15.44;75.30;100802.72;685488;28;1909;-77